Map

Track Data

SID SEASON NUMBER BASIN SUBBASIN NAME ISO_TIME NATURE LAT LON WMO_WIND WMO_PRES WMO_AGENCY TRACK_TYPE DIST2LAND LANDFALL IFLAG USA_AGENCY USA_ATCF_ID USA_LAT USA_LON USA_RECORD USA_STATUS USA_WIND USA_PRES USA_SSHS USA_R34_NE USA_R34_SE USA_R34_SW USA_R34_NW USA_R50_NE USA_R50_SE USA_R50_SW USA_R50_NW USA_R64_NE USA_R64_SE USA_R64_SW USA_R64_NW USA_POCI USA_ROCI USA_RMW USA_EYE TOKYO_LAT TOKYO_LON TOKYO_GRADE TOKYO_WIND TOKYO_PRES TOKYO_R50_DIR TOKYO_R50_LONG TOKYO_R50_SHORT TOKYO_R30_DIR TOKYO_R30_LONG TOKYO_R30_SHORT TOKYO_LAND CMA_LAT CMA_LON CMA_CAT CMA_WIND CMA_PRES HKO_LAT HKO_LON HKO_CAT HKO_WIND HKO_PRES NEWDELHI_LAT NEWDELHI_LON NEWDELHI_GRADE NEWDELHI_WIND NEWDELHI_PRES NEWDELHI_CI NEWDELHI_DP NEWDELHI_POCI REUNION_LAT REUNION_LON REUNION_TYPE REUNION_WIND REUNION_PRES REUNION_TNUM REUNION_CI REUNION_RMW REUNION_R34_NE REUNION_R34_SE REUNION_R34_SW REUNION_R34_NW REUNION_R50_NE REUNION_R50_SE REUNION_R50_SW REUNION_R50_NW REUNION_R64_NE REUNION_R64_SE REUNION_R64_SW REUNION_R64_NW BOM_LAT BOM_LON BOM_TYPE BOM_WIND BOM_PRES BOM_TNUM BOM_CI BOM_RMW BOM_R34_NE BOM_R34_SE BOM_R34_SW BOM_R34_NW BOM_R50_NE BOM_R50_SE BOM_R50_SW BOM_R50_NW BOM_R64_NE BOM_R64_SE BOM_R64_SW BOM_R64_NW BOM_ROCI BOM_POCI BOM_EYE BOM_POS_METHOD BOM_PRES_METHOD NADI_LAT NADI_LON NADI_CAT NADI_WIND NADI_PRES WELLINGTON_LAT WELLINGTON_LON WELLINGTON_WIND WELLINGTON_PRES DS824_LAT DS824_LON DS824_STAGE DS824_WIND DS824_PRES TD9636_LAT TD9636_LON TD9636_STAGE TD9636_WIND TD9636_PRES TD9635_LAT TD9635_LON TD9635_WIND TD9635_PRES TD9635_ROCI NEUMANN_LAT NEUMANN_LON NEUMANN_CLASS NEUMANN_WIND NEUMANN_PRES MLC_LAT MLC_LON MLC_CLASS MLC_WIND MLC_PRES USA_GUST BOM_GUST BOM_GUST_PER REUNION_GUST REUNION_GUST_PER USA_SEAHGT USA_SEARAD_NE USA_SEARAD_SE USA_SEARAD_SW USA_SEARAD_NW STORM_SPEED STORM_DIR
2022264N10330 2022 58 NA NA NOT_NAMED 2022-09-20 12:00:00 NR 10.1000 -30.1000 PROVISIONAL 1462 1462 O_____________ nhc_working_bt AL112022 10.1000 -30.1000 DB 20 1010 -3 1011 150 100 11 282
2022264N10330 2022 58 NA NA NOT_NAMED 2022-09-20 15:00:00 NR 10.2153 -30.6399 PROVISIONAL 1509 1509 P_____________ AL112022 10.2153 -30.6399 DB 20 1010 -3 1011 150 100 10 281
2022264N10330 2022 58 NA NA NOT_NAMED 2022-09-20 18:00:00 NR 10.3000 -31.1000 PROVISIONAL 1556 1556 O_____________ nhc_working_bt AL112022 10.3000 -31.1000 DB 20 1010 -3 1011 150 100 8 279
2022264N10330 2022 58 NA NA NOT_NAMED 2022-09-20 21:00:00 NR 10.3424 -31.4301 PROVISIONAL 1587 1587 P_____________ AL112022 10.3424 -31.4301 DB 20 1010 -3 6 280
2022264N10330 2022 58 NA NA NOT_NAMED 2022-09-21 00:00:00 NR 10.4000 -31.7000 PROVISIONAL 1615 1615 O_____________ nhc_working_bt AL112022 10.4000 -31.7000 DB 20 1010 -3 7 290
2022264N10330 2022 58 NA NA NOT_NAMED 2022-09-21 03:00:00 NR 10.5651 -32.0599 PROVISIONAL 1649 1649 P_____________ AL112022 10.5651 -32.0599 DB 20 1010 -3 7 297
2022264N10330 2022 58 NA NA NOT_NAMED 2022-09-21 06:00:00 NR 10.7000 -32.3000 PROVISIONAL 1667 1656 O_____________ nhc_working_bt AL112022 10.7000 -32.3000 DB 20 1010 -3 1011 150 90 2 304
2022264N10330 2022 58 NA NA NOT_NAMED 2022-09-21 09:00:00 NR 10.6725 -32.2225 PROVISIONAL 1656 1649 P_____________ AL112022 10.6725 -32.2225 DB 20 1010 -3 1011 150 90 2 117
2022264N10330 2022 58 NA NA NOT_NAMED 2022-09-21 12:00:00 NR 10.6000 -32.1000 PROVISIONAL 1649 1649 O_____________ nhc_working_bt AL112022 10.6000 -32.1000 DB 20 1010 -3 1011 150 90 1 171
2022264N10330 2022 58 NA NA NOT_NAMED 2022-09-21 15:00:00 NR 10.5850 -32.1975 PROVISIONAL 1660 1660 P_____________ AL112022 10.5850 -32.1975 DB 20 1010 -3 1011 150 90 3 270
2022264N10330 2022 58 NA NA NOT_NAMED 2022-09-21 18:00:00 NR 10.6000 -32.4000 PROVISIONAL 1680 1680 O_____________ nhc_working_bt AL112022 10.6000 -32.4000 DB 20 1010 -3 1011 150 90 4 278
2022264N10330 2022 58 NA NA NOT_NAMED 2022-09-21 21:00:00 NR 10.6425 -32.6350 PROVISIONAL 1701 1701 P_____________ AL112022 10.6425 -32.6350 DB 20 1010 -3 1011 150 90 5 282
2022264N10330 2022 58 NA NA NOT_NAMED 2022-09-22 00:00:00 NR 10.7000 -32.9000 PROVISIONAL 1704 1695 O_____________ nhc_working_bt AL112022 10.7000 -32.9000 DB 20 1010 -3 1011 150 90 5 283
2022264N10330 2022 58 NA NA NOT_NAMED 2022-09-22 03:00:00 NR 10.7575 -33.1500 PROVISIONAL 1705 1690 P_____________ AL112022 10.7575 -33.1500 DB 20 1010 -3 1011 150 90 5 282
2022264N10330 2022 58 NA NA NOT_NAMED 2022-09-22 06:00:00 NR 10.8000 -33.4000 PROVISIONAL 1690 1677 O_____________ nhc_working_bt AL112022 10.8000 -33.4000 DB 20 1010 -3 1011 150 90 5 277
2022264N10330 2022 58 NA NA NOT_NAMED 2022-09-22 09:00:00 NR 10.8225 -33.6725 PROVISIONAL 1677 1668 P_____________ AL112022 10.8225 -33.6725 DB 20 1010 -3 1011 150 90 5 270
2022264N10330 2022 58 NA NA NOT_NAMED 2022-09-22 12:00:00 NR 10.8000 -33.9000 PROVISIONAL 1668 1653 O_____________ nhc_working_bt AL112022 10.8000 -33.9000 DB 20 1010 -3 1011 150 90 4 252
2022264N10330 2022 58 NA NA NOT_NAMED 2022-09-22 15:00:00 NR 10.7150 -34.0150 PROVISIONAL 1653 1639 P_____________ AL112022 10.7150 -34.0150 DB 20 1010 -3 1011 150 90 3 225
2022264N10330 2022 58 NA NA NOT_NAMED 2022-09-22 18:00:00 NR 10.6000 -34.1000 PROVISIONAL 1639 1624 O_____________ nhc_working_bt AL112022 10.6000 -34.1000 DB 20 1010 -3 1011 150 90 3 218
2022264N10330 2022 58 NA NA NOT_NAMED 2022-09-22 21:00:00 NR 10.4550 -34.2201 PROVISIONAL 1624 1605 P_____________ AL112022 10.4550 -34.2201 DB 20 1010 -3 1011 150 90 4 236
2022264N10330 2022 58 NA NA NOT_NAMED 2022-09-23 00:00:00 NR 10.4000 -34.4000 PROVISIONAL 1605 1601 O_____________ nhc_working_bt AL112022 10.4000 -34.4000 DB 20 1010 -3 1011 150 90 5 282
2022264N10330 2022 58 NA NA NOT_NAMED 2022-09-23 03:00:00 NR 10.5550 -34.6849 PROVISIONAL 1614 1610 P_____________ AL112022 10.5550 -34.6849 DB 20 1009 -3 1011 150 90 7 304
2022264N10330 2022 58 NA NA NOT_NAMED 2022-09-23 06:00:00 DS 10.8000 -35.0000 PROVISIONAL 1624 1620 O_____________ nhc_working_bt AL112022 10.8000 -35.0000 LO 20 1009 -3 1011 150 90 7 308
2022264N10330 2022 58 NA NA NOT_NAMED 2022-09-23 09:00:00 DS 11.0000 -35.2650 PROVISIONAL 1635 1635 P_____________ AL112022 11.0000 -35.2650 LO 20 1009 -3 1011 150 90 6 309
2022264N10330 2022 58 NA NA NOT_NAMED 2022-09-23 12:00:00 DS 11.2000 -35.5000 PROVISIONAL 1650 1650 O_____________ nhc_working_bt AL112022 11.2000 -35.5000 LO 20 1009 -3 1011 150 90 6 313
2022264N10330 2022 58 NA NA NOT_NAMED 2022-09-23 15:00:00 DS 11.4000 -35.7075 PROVISIONAL 1665 1662 P_____________ AL112022 11.4000 -35.7075 LO 20 1009 -3 1011 150 90 6 316
2022264N10330 2022 58 NA NA NOT_NAMED 2022-09-23 18:00:00 DS 11.6000 -35.9000 PROVISIONAL 1681 1681 O_____________ nhc_working_bt AL112022 11.6000 -35.9000 LO 20 1009 -3 1011 150 90 6 317
2022264N10330 2022 58 NA NA NOT_NAMED 2022-09-23 21:00:00 DS 11.8300 -36.1224 PROVISIONAL 1697 1697 P_____________ AL112022 11.8300 -36.1224 LO 20 1009 -3 1011 150 90 6 316
2022264N10330 2022 58 NA NA NOT_NAMED 2022-09-24 00:00:00 DS 12.0000 -36.3000 PROVISIONAL 1713 1711 O_____________ nhc_working_bt AL112022 12.0000 -36.3000 LO 20 1009 -3 1011 150 90 3 309
2022264N10330 2022 58 NA NA NOT_NAMED 2022-09-24 03:00:00 DS 12.0300 -36.3726 PROVISIONAL 1711 1711 P_____________ AL112022 12.0300 -36.3726 LO 20 1009 -3 1011 150 90 1 270
2022264N10330 2022 58 NA NA NOT_NAMED 2022-09-24 06:00:00 DS 12.0000 -36.4000 PROVISIONAL 1711 1708 O_____________ nhc_working_bt AL112022 12.0000 -36.4000 LO 20 1009 -3 1011 150 90 1 232
2022264N10330 2022 58 NA NA NOT_NAMED 2022-09-24 09:00:00 DS 11.9700 -36.4575 PROVISIONAL 1708 1708 P_____________ AL112022 11.9700 -36.4575 LO 22 1009 -3 1011 150 90 1 270
2022264N10330 2022 58 NA NA NOT_NAMED 2022-09-24 12:00:00 DS 12.0000 -36.5000 PROVISIONAL 1708 1708 O_____________ nhc_working_bt AL112022 12.0000 -36.5000 LO 25 1009 -3 1011 150 90 2 335
2022264N10330 2022 58 NA NA NOT_NAMED 2022-09-24 15:00:00 DS 12.1625 -36.5449 PROVISIONAL 1730 1730 P_____________ AL112022 12.1625 -36.5449 LO 25 1009 -3 1011 150 90 4 0
2022264N10330 2022 58 NA NA NOT_NAMED 2022-09-24 18:00:00 DS 12.4000 -36.5000 PROVISIONAL 1752 1752 O_____________ nhc_working_bt AL112022 12.4000 -36.5000 LO 25 1009 -3 1011 150 90 5 30
2022264N10330 2022 58 NA NA NOT_NAMED 2022-09-24 21:00:00 DS 12.6276 -36.2651 PROVISIONAL 1779 1779 P_____________ AL112022 12.6276 -36.2651 LO 25 1009 -3 1011 150 90 7 44
2022264N10330 2022 58 NA NA NOT_NAMED 2022-09-25 00:00:00 DS 12.9000 -36.0000 PROVISIONAL 1819 1819 O_____________ nhc_working_bt AL112022 12.9000 -36.0000 LO 25 1009 -3 1011 150 90 8 34
2022264N10330 2022 58 NA NA NOT_NAMED 2022-09-25 03:00:00 DS 13.2649 -35.8251 PROVISIONAL 1868 1868 P_____________ AL112022 13.2649 -35.8251 LO 25 1009 -3 1011 150 90 7 15
2022264N10330 2022 58 NA NA NOT_NAMED 2022-09-25 06:00:00 DS 13.6000 -35.8000 PROVISIONAL 1900 1900 O_____________ nhc_working_bt AL112022 13.6000 -35.8000 LO 25 1009 -3 1011 150 90 6 337
2022264N10330 2022 58 NA NA NOT_NAMED 2022-09-25 09:00:00 DS 13.7801 -36.0498 PROVISIONAL 1917 1912 P_____________ AL112022 13.7801 -36.0498 LO 25 1009 -3 1011 150 80 6 302
2022264N10330 2022 58 NA NA NOT_NAMED 2022-09-25 12:00:00 DS 13.9000 -36.3000 PROVISIONAL 1921 1921 O_____________ nhc_working_bt AL112022 13.9000 -36.3000 LO 25 1009 -3 1011 150 70 3 321
2022264N10330 2022 58 NA NA NOT_NAMED 2022-09-25 15:00:00 DS 14.0275 -36.2526 PROVISIONAL 1932 1932 P_____________ AL112022 14.0275 -36.2526 LO 25 1009 -3 1011 150 70 4 33
2022264N10330 2022 58 NA NA NOT_NAMED 2022-09-25 18:00:00 DS 14.2000 -36.1000 PROVISIONAL 1958 1958 O_____________ nhc_working_bt AL112022 14.2000 -36.1000 LO 25 1009 -3 1011 150 70 6 27
2022264N10330 2022 58 NA NA NOT_NAMED 2022-09-25 21:00:00 DS 14.5225 -35.9926 PROVISIONAL 1991 1978 P_____________ AL112022 14.5225 -35.9926 LO 25 1009 -3 1011 150 65 6 18
2022264N10330 2022 58 NA NA NOT_NAMED 2022-09-26 00:00:00 DS 14.8000 -35.9000 PROVISIONAL 1978 1967 O_____________ nhc_working_bt AL112022 14.8000 -35.9000 LO 25 1009 -3 1012 150 60 4 23
2022264N10330 2022 58 NA NA NOT_NAMED 2022-09-26 03:00:00 DS 14.8750 -35.8350 PROVISIONAL 1967 1967 P_____________ AL112022 14.8750 -35.8350 LO 25 1008 -3 1012 150 60 1 90
2022264N10330 2022 58 NA NA NOT_NAMED 2022-09-26 06:00:00 DS 14.8000 -35.8000 PROVISIONAL 1968 1968 O_____________ nhc_working_bt AL112022 14.8000 -35.8000 LO 25 1008 -3 1012 150 60 3 173
2022264N10330 2022 58 NA NA NOT_NAMED 2022-09-26 09:00:00 DS 14.6300 -35.7925 PROVISIONAL 1969 1969 P_____________ AL112022 14.6300 -35.7925 LO 25 1008 -3 1012 150 60 4 0
2022264N10330 2022 58 NA NA NOT_NAMED 2022-09-26 12:00:00 DS 14.4000 -35.8000 PROVISIONAL 1970 1965 O_____________ nhc_working_bt AL112022 14.4000 -35.8000 LO 25 1008 -3 1012 150 60 4 184
2022264N10330 2022 58 NA NA NOT_NAMED 2022-09-26 15:00:00 DS 14.1925 -35.8376 PROVISIONAL 1965 1944 P_____________ AL112022 14.1925 -35.8376 LO 25 1008 -3 1012 150 55 4 0
2022264N10330 2022 58 NA NA NOT_NAMED 2022-09-26 18:00:00 DS 14.0000 -35.8000 PROVISIONAL 1944 1927 O_____________ nhc_working_bt AL112022 14.0000 -35.8000 LO 25 1008 -3 1012 150 50 4 145
2022264N10330 2022 58 NA NA NOT_NAMED 2022-09-26 21:00:00 DS 13.8276 -35.5724 PROVISIONAL 1927 1922 P_____________ AL112022 13.8276 -35.5724 LO 25 1008 -3 1012 150 50 6 122
2022264N10330 2022 58 NA NA NOT_NAMED 2022-09-27 00:00:00 DS 13.7000 -35.3000 PROVISIONAL 1922 1902 O_____________ nhc_working_bt AL112022 13.7000 -35.3000 LO 25 1008 -3 1012 150 50 5 117
2022264N10330 2022 58 NA NA NOT_NAMED 2022-09-27 03:00:00 DS 13.6125 -35.1350 PROVISIONAL 1902 1891 P_____________ AL112022 13.6125 -35.1350 LO 25 1008 -3 1012 150 50 3 109
2022264N10330 2022 58 NA NA NOT_NAMED 2022-09-27 06:00:00 DS 13.6000 -35.0000 PROVISIONAL 1891 1879 O_____________ nhc_working_bt AL112022 13.6000 -35.0000 LO 25 1008 -3 1012 150 50 3 77
2022264N10330 2022 58 NA NA NOT_NAMED 2022-09-27 09:00:00 DS 13.6775 -34.8425 PROVISIONAL 1868 1856 P_____________ AL112022 13.6775 -34.8425 LO 25 1008 -3 1012 150 50 4 56
2022264N10330 2022 58 NA NA NOT_NAMED 2022-09-27 12:00:00 DS 13.8000 -34.7000 PROVISIONAL 1856 1845 O_____________ nhc_working_bt AL112022 13.8000 -34.7000 LO 25 1008 -3 1012 150 50 3 49
2022264N10330 2022 58 NA NA NOT_NAMED 2022-09-27 15:00:00 DS 13.8925 -34.5850 PROVISIONAL 1845 1833 P_____________ AL112022 13.8925 -34.5850 LO 25 1008 -3 1012 150 50 3 44
2022264N10330 2022 58 NA NA NOT_NAMED 2022-09-27 18:00:00 DS 14.0000 -34.5000 PROVISIONAL 1833 1821 O_____________ nhc_working_bt AL112022 14.0000 -34.5000 LO 25 1008 -3 1012 150 50 3 30
2022264N10330 2022 58 NA NA NOT_NAMED 2022-09-27 21:00:00 DS 14.1350 -34.4425 PROVISIONAL 1821 1820 P_____________ AL112022 14.1350 -34.4425 LO 27 1008 -3 1012 150 50 3 17
2022264N10330 2022 58 NA NA NOT_NAMED 2022-09-28 00:00:00 DS 14.3000 -34.4000 PROVISIONAL 1820 1819 O_____________ nhc_working_bt AL112022 14.3000 -34.4000 LO 30 1009 -3 1012 150 50 40 3 15
2022264N10330 2022 58 NA NA NOT_NAMED 2022-09-28 03:00:00 DS 14.4475 -34.3500 PROVISIONAL 1808 1807 P_____________ AL112022 14.4475 -34.3500 LO 30 1009 -3 1012 150 50 4 13
2022264N10330 2022 58 NA NA NOT_NAMED 2022-09-28 06:00:00 DS 14.7000 -34.3000 PROVISIONAL 1807 1795 O_____________ nhc_working_bt AL112022 14.7000 -34.3000 LO 30 1009 -3 1012 150 50 40 8 11
2022264N10330 2022 58 NA NA NOT_NAMED 2022-09-28 09:00:00 DS 15.1925 -34.2053 PROVISIONAL 1795 1795 P_____________ AL112022 15.1925 -34.2053 LO 30 1008 -3 1012 150 50 10 6
2022264N10330 2022 58 NA NA NOT_NAMED 2022-09-28 12:00:00 TS 15.7000 -34.2000 PROVISIONAL 1795 1795 O_____________ nhc_working_bt AL112022 15.7000 -34.2000 TD 30 1008 -1 1012 150 50 40 9 353
2022264N10330 2022 58 NA NA NOT_NAMED 2022-09-28 15:00:00 TS 16.0812 -34.3224 PROVISIONAL 1808 1808 P_____________ AL112022 15.9876 -34.4049 TD 30 1008 -1 1012 150 45 8 336
2022264N10330 2022 58 NA NA NOT_NAMED 2022-09-28 18:00:00 TS 16.3800 -34.5200 PROVISIONAL 1831 1831 O_____________ nhc_working_bt AL112022 16.2000 -34.7000 TD 30 1008 -1 1012 150 40 40 7 314
2022264N10330 2022 58 NA NA NOT_NAMED 2022-09-28 21:00:00 TS 16.5425 -34.8129 PROVISIONAL 1863 1863 P_____________ AL112022 16.4274 -34.9278 TD 30 1008 -1 1012 150 40 7 296
2022264N10330 2022 58 NA NA NOT_NAMED 2022-09-29 00:00:00 TS 16.7000 -35.2000 PROVISIONAL 1907 1907 O_____________ nhc_working_bt AL112022 16.7000 -35.2000 TD 30 1008 -1 1012 150 40 40 9 304
2022264N10330 2022 58 NA NA NOT_NAMED 2022-09-29 03:00:00 TS 17.0424 -35.5802 PROVISIONAL 1953 1953 P_____________ AL112022 17.0775 -35.5700 TD 30 1008 -1 1012 150 45 11 316
2022264N10330 2022 58 NA NA NOT_NAMED 2022-09-29 06:00:00 TS 17.5000 -36.0000 PROVISIONAL 2000 2000 O_____________ nhc_working_bt AL112022 17.5000 -36.0000 TD 30 1008 -1 1012 150 50 40 14 320
2022264N10330 2022 58 NA NA NOT_NAMED 2022-09-29 09:00:00 TS 18.0910 -36.5026 PROVISIONAL 2055 2055 P_____________ AL112022 17.9376 -36.4648 TD 30 1008 -1 1012 150 50 14 319
2022264N10330 2022 58 NA NA NOT_NAMED 2022-09-29 12:00:00 TS 18.5667 -36.9667 PROVISIONAL 2096 2096 O_____________ nhc_working_bt AL112022 18.3000 -36.9000 TD 30 1008 -1 1012 150 50 40 10 309
2022264N10330 2022 58 NA NA NOT_NAMED 2022-09-29 15:00:00 TS 18.6932 -37.2814 PROVISIONAL 2125 2125 P_____________ AL112022 18.5000 -37.2327 TD 27 1008 -1 1012 150 60 5 274
2022264N10330 2022 58 NA NA NOT_NAMED 2022-09-29 18:00:00 DS 18.6000 -37.5000 PROVISIONAL 2148 O_____________ nhc_working_bt AL112022 18.6000 -37.5000 LO 25 1008 -3 1012 150 70 35 5 246

About IBTrACS Database

This database is a web-friendly format of International Best Track Archive for Climate Stewardship (IBTrACS), a global best track data archive curated by NOAA dating back to 1842.

Updated: 2022-11-16